Airfield :
LOGIN :

Register | Disclaimer

   EN    FR    IT 

 










Legend :    VFR   Marginal VFR   IFR   Intensive IFR   Very Intensive IFR
Visi :
Ceiling :
>= 8 km
>= 3000ft
5 to 8 km
1000 to 3000 ft
1500m to 5 km
500 to 1000 ft
800 to 1500m
200 to 500 ft
< 800m
< 200 ft
Symbols :   Thunderstorms  Fog  Heavy snow  Heavy precipitations  Wind > 20 kt
SIGMETs :     Misc.  Thunderstorms  Icing  Turbulence  Mountain Waves  Volcanic Ashes






- Airport Elevation : 359 ft
- IATA code : DEB


LHDC - Debrecen

CURRENT METAR :
  • 032015Z AUTO 12004KT CAVOK 25/14 Q1016 NOSIG

EXPIRED METARs :
  • 031945Z AUTO VRB02KT CAVOK 28/14 Q1016 NOSIG
  • 031915Z AUTO VRB01KT CAVOK 28/13 Q1015 NOSIG
  • 031845Z AUTO VRB02KT CAVOK 31/13 Q1015 NOSIG
  • 031815Z AUTO 30003KT CAVOK 31/13 Q1015 NOSIG
  • 030445Z AUTO 04008KT 010V070 CAVOK 21/16 Q1019 NOSIG
  • 031745Z AUTO 29004KT CAVOK 32/13 Q1015 NOSIG

TAF TAF LHDC
Valid from the 03 at 21:00 until the 04 at 06:00 UTC


032015Z 0321/0406 VRB04KT CAVOK



MET'MAP, your aeronautical weather chart ! - Copyright ORBIFLY December 2007 - Disclaimer

ORBIFLY MET'MAP TEAM :

Programming & Development : Alexandra Zaïnal
Original concept : Baudouin d'Aumeries
Technical & hardware support : Manuel Goepfert
Assistance : Marc-Olivier Méhu




SOURCES & CREDITS :

   NOAA